createdAt,value
2023-03-06T00:03:57.784Z,4.28
2023-03-06T00:09:18.508Z,6.30
2023-03-06T00:14:39.254Z,5.28
2023-03-06T00:19:59.974Z,5.07
2023-03-06T00:25:21.959Z,8.43
2023-03-06T00:30:43.549Z,6.50
2023-03-06T00:36:05.991Z,5.85
2023-03-06T00:41:27.315Z,5.32
2023-03-06T00:46:48.125Z,4.40
2023-03-06T00:52:08.959Z,5.20
2023-03-06T00:57:29.857Z,6.93
2023-03-06T01:02:53.654Z,4.28
2023-03-06T01:08:16.158Z,5.88
2023-03-06T01:13:36.783Z,5.30
2023-03-06T01:18:57.555Z,5.18
2023-03-06T01:24:18.265Z,6.22
2023-03-06T01:29:39.106Z,4.38
2023-03-06T01:34:59.701Z,5.97
2023-03-06T01:40:20.779Z,3.40
2023-03-06T01:45:41.688Z,6.60
2023-03-06T01:51:02.460Z,5.03
2023-03-06T01:56:24.033Z,5.32
2023-03-06T02:01:46.758Z,4.03
2023-03-06T02:07:09.297Z,7.28
2023-03-06T02:12:30.407Z,4.18
2023-03-06T02:17:52.461Z,6.20
2023-03-06T02:23:21.375Z,5.82
2023-03-06T02:28:42.102Z,5.72
2023-03-06T02:34:07.599Z,6.68
2023-03-06T02:39:31.270Z,5.10
2023-03-06T02:44:54.285Z,6.95
2023-03-06T02:50:14.957Z,5.07
2023-03-06T02:55:36.378Z,6.05
2023-03-06T03:00:57.543Z,5.20
2023-03-06T03:06:18.867Z,7.15
2023-03-06T03:11:40.679Z,5.45
2023-03-06T03:17:01.597Z,7.40
2023-03-06T03:22:22.744Z,6.60
2023-03-06T03:27:44.613Z,5.65
2023-03-06T03:33:06.364Z,6.13
2023-03-06T03:38:27.871Z,5.97
2023-03-06T03:43:49.440Z,7.57
2023-03-06T03:49:10.153Z,6.93
2023-03-06T03:54:31.863Z,7.30
2023-03-06T03:59:53.210Z,6.68
2023-03-06T04:05:19.278Z,5.65
2023-03-06T04:10:42.115Z,11.18
2023-03-06T04:16:04.654Z,6.10
2023-03-06T04:21:27.862Z,8.85
2023-03-06T04:26:49.266Z,5.70
2023-03-06T04:32:10.217Z,7.20
2023-03-06T04:37:31.489Z,7.70
2023-03-06T04:42:54.558Z,8.07
2023-03-06T04:48:17.975Z,6.47
2023-03-06T04:53:38.671Z,7.90
2023-03-06T04:58:59.491Z,7.15
2023-03-06T05:04:20.164Z,7.07
2023-03-06T05:09:40.848Z,8.90
2023-03-06T05:15:01.311Z,8.15
2023-03-06T05:20:22.390Z,8.93
2023-03-06T05:25:43.351Z,8.63
2023-03-06T05:31:05.271Z,9.57
2023-03-06T05:36:25.979Z,6.68
2023-03-06T05:41:46.547Z,7.05
2023-03-06T05:47:08.404Z,5.35
2023-03-06T05:52:29.497Z,8.65
2023-03-06T05:57:51.682Z,8.90
2023-03-06T06:03:12.303Z,8.70
2023-03-06T06:08:32.979Z,8.98
2023-03-06T06:13:53.739Z,6.93
2023-03-06T06:19:18.766Z,7.95
2023-03-06T06:24:39.793Z,8.75
2023-03-06T06:30:00.423Z,12.07
2023-03-06T06:35:21.252Z,10.00
2023-03-06T06:40:42.550Z,7.90
2023-03-06T06:46:31.443Z,11.60
2023-03-06T06:51:45.096Z,10.13
2023-03-06T06:57:05.853Z,10.55
2023-03-06T07:02:26.742Z,9.05
2023-03-06T07:07:47.463Z,10.75
2023-03-06T07:13:08.096Z,10.25
2023-03-06T07:18:29.117Z,13.75
2023-03-06T07:23:50.412Z,8.68
2023-03-06T07:29:11.153Z,13.55
2023-03-06T07:34:31.926Z,9.02
2023-03-06T07:39:52.647Z,13.70
2023-03-06T07:45:13.795Z,10.65
2023-03-06T07:50:35.125Z,8.32
2023-03-06T07:55:56.533Z,11.45
2023-03-06T08:01:20.041Z,13.85
2023-03-06T08:06:40.927Z,10.73
2023-03-06T08:12:02.288Z,13.80
2023-03-06T08:17:22.924Z,10.15
2023-03-06T08:22:43.575Z,11.38
2023-03-06T08:28:04.358Z,11.70
2023-03-06T08:33:25.547Z,9.45
2023-03-06T08:38:46.470Z,11.70
2023-03-06T08:44:07.191Z,11.75
2023-03-06T08:49:27.910Z,12.20
2023-03-06T08:54:48.625Z,15.38
2023-03-06T09:00:10.941Z,11.18
2023-03-06T09:05:32.341Z,14.07
2023-03-06T09:10:53.212Z,13.07
2023-03-06T09:16:13.956Z,11.88
2023-03-06T09:21:34.775Z,13.05
2023-03-06T09:26:55.504Z,13.68
2023-03-06T09:32:16.300Z,12.75
2023-03-06T09:37:37.196Z,10.27
2023-03-06T09:42:58.081Z,12.45
2023-03-06T09:48:28.436Z,9.50
2023-03-06T09:54:13.855Z,12.45
2023-03-06T09:59:34.765Z,9.43
2023-03-06T10:05:04.097Z,11.73
2023-03-06T10:10:28.405Z,12.00
2023-03-06T10:15:50.265Z,9.05
2023-03-06T10:21:26.439Z,8.05
2023-03-06T10:26:58.319Z,10.73
2023-03-06T10:32:47.649Z,9.23
2023-03-06T10:38:32.269Z,8.90
2023-03-06T10:44:05.316Z,10.50
2023-03-06T10:49:36.812Z,6.75
2023-03-06T10:55:37.759Z,7.47
2023-03-06T11:01:03.577Z,7.65
2023-03-06T11:06:37.055Z,9.77
2023-03-06T11:12:38.098Z,7.40
2023-03-06T11:18:08.802Z,6.35
2023-03-06T11:23:46.582Z,7.88
2023-03-06T11:29:12.172Z,5.65
2023-03-06T11:35:04.460Z,10.88
2023-03-06T11:40:33.821Z,6.57
2023-03-06T11:46:12.074Z,5.40
2023-03-06T11:51:38.153Z,6.38
2023-03-06T11:57:06.940Z,4.65
2023-03-06T12:02:57.238Z,6.28
2023-03-06T12:08:36.415Z,4.03
2023-03-06T12:14:13.833Z,6.82
2023-03-06T12:19:40.518Z,7.07
2023-03-06T12:25:17.376Z,5.35
2023-03-06T12:30:49.487Z,6.35
2023-03-06T12:36:28.773Z,9.90
2023-03-06T12:42:48.644Z,6.82
2023-03-06T12:48:20.572Z,4.80
2023-03-06T12:53:42.661Z,7.97
2023-03-06T12:59:03.597Z,7.75
2023-03-06T13:04:52.500Z,7.68
2023-03-06T13:10:25.408Z,9.52
2023-03-06T13:16:09.946Z,8.43
2023-03-06T13:21:47.631Z,6.90
2023-03-06T13:27:11.683Z,6.55
2023-03-06T13:32:34.101Z,6.80
2023-03-06T13:37:54.922Z,6.88
2023-03-06T13:43:21.495Z,7.07
2023-03-06T13:48:45.796Z,6.60
2023-03-06T13:54:10.034Z,7.53
2023-03-06T14:00:03.107Z,6.30
2023-03-06T14:05:52.852Z,9.50
2023-03-06T14:11:21.201Z,8.55
2023-03-06T14:16:50.547Z,9.55
2023-03-06T14:22:23.085Z,12.07
2023-03-06T14:27:52.540Z,6.63
2023-03-06T14:33:13.245Z,8.50
2023-03-06T14:38:42.323Z,8.10
2023-03-06T14:44:21.785Z,7.57
2023-03-06T14:49:42.767Z,9.53
2023-03-06T14:55:09.675Z,6.30
2023-03-06T15:00:38.127Z,6.88
2023-03-06T15:05:59.516Z,6.43
2023-03-06T15:11:20.192Z,6.15
2023-03-06T15:16:41.025Z,6.15
2023-03-06T15:22:01.849Z,7.35
2023-03-06T15:27:30.330Z,6.38
2023-03-06T15:32:51.786Z,6.63
2023-03-06T15:38:42.218Z,5.53
2023-03-06T15:44:11.424Z,9.13
2023-03-06T15:49:32.210Z,7.82
2023-03-06T15:54:53.074Z,10.90
2023-03-06T16:00:27.299Z,8.85
2023-03-06T16:05:48.531Z,9.25
2023-03-06T16:11:32.555Z,8.40
2023-03-06T16:16:56.907Z,10.40
2023-03-06T16:22:17.880Z,8.48
2023-03-06T16:27:38.686Z,9.20
2023-03-06T16:33:00.226Z,8.45
2023-03-06T16:38:21.132Z,9.50
2023-03-06T16:43:41.871Z,6.15
2023-03-06T16:49:02.539Z,8.10
2023-03-06T16:54:26.181Z,6.95
2023-03-06T16:59:47.385Z,7.70
2023-03-06T17:05:09.843Z,8.20
2023-03-06T17:10:31.202Z,11.52
2023-03-06T17:15:59.506Z,12.57
2023-03-06T17:21:20.569Z,12.55
2023-03-06T17:26:41.405Z,12.65
2023-03-06T17:32:02.372Z,12.60
2023-03-06T17:37:23.337Z,11.90
2023-03-06T17:42:43.976Z,11.02
2023-03-06T17:48:04.889Z,8.50
2023-03-06T17:53:26.731Z,10.80
2023-03-06T17:58:47.743Z,19.25
2023-03-06T18:04:08.582Z,12.68
2023-03-06T18:09:29.469Z,13.95
2023-03-06T18:14:50.832Z,13.00
2023-03-06T18:20:12.258Z,13.73
2023-03-06T18:25:33.713Z,11.45
2023-03-06T18:30:54.789Z,14.55
2023-03-06T18:36:16.091Z,14.65
2023-03-06T18:41:37.667Z,11.13
2023-03-06T18:46:58.620Z,11.35
2023-03-06T18:52:19.593Z,11.98
2023-03-06T18:57:40.929Z,9.63
2023-03-06T19:03:01.775Z,11.82
2023-03-06T19:08:22.443Z,13.38
2023-03-06T19:13:43.440Z,12.60
2023-03-06T19:19:04.558Z,11.75
2023-03-06T19:24:25.299Z,12.80
2023-03-06T19:29:46.018Z,15.50
2023-03-06T19:35:07.013Z,13.32
2023-03-06T19:40:28.213Z,12.93
2023-03-06T19:45:49.030Z,12.02
2023-03-06T19:51:10.631Z,12.05
2023-03-06T19:56:33.816Z,12.15
2023-03-06T20:01:54.989Z,13.27
2023-03-06T20:07:15.799Z,16.05
2023-03-06T20:12:36.659Z,14.88
2023-03-06T20:17:57.424Z,15.88
2023-03-06T20:23:19.129Z,14.82
2023-03-06T20:28:42.165Z,9.27
2023-03-06T20:34:05.415Z,11.82
2023-03-06T20:39:26.108Z,14.30
2023-03-06T20:44:47.242Z,13.23
2023-03-06T20:50:08.539Z,12.77
2023-03-06T20:55:29.342Z,10.85
2023-03-06T21:00:50.066Z,14.60
2023-03-06T21:06:10.693Z,12.07
2023-03-06T21:11:31.475Z,13.07
2023-03-06T21:16:52.162Z,12.82
2023-03-06T21:22:13.791Z,12.00
2023-03-06T21:27:34.564Z,13.63
2023-03-06T21:32:55.718Z,13.40
2023-03-06T21:38:17.029Z,14.27
2023-03-06T21:43:38.927Z,14.07
2023-03-06T21:49:01.602Z,11.75
2023-03-06T21:54:22.947Z,11.65
2023-03-06T21:59:43.596Z,13.65
2023-03-06T22:05:04.807Z,13.65
2023-03-06T22:10:25.699Z,14.40
2023-03-06T22:15:50.800Z,17.33
2023-03-06T22:21:14.661Z,15.25
2023-03-06T22:26:35.519Z,14.90
2023-03-06T22:31:56.299Z,16.08
2023-03-06T22:37:17.206Z,15.48
2023-03-06T22:42:37.765Z,13.30
2023-03-06T22:48:10.144Z,15.43
2023-03-06T22:53:32.707Z,13.13
2023-03-06T22:58:53.833Z,12.65
2023-03-06T23:04:14.715Z,16.73
2023-03-06T23:09:35.325Z,12.40
2023-03-06T23:15:14.635Z,10.18
2023-03-06T23:20:54.113Z,15.02
2023-03-06T23:26:34.488Z,15.20
2023-03-06T23:31:55.457Z,15.25
2023-03-06T23:37:16.050Z,13.20
2023-03-06T23:42:37.392Z,14.98
2023-03-06T23:47:58.272Z,14.27
2023-03-06T23:53:19.700Z,14.30
2023-03-06T23:58:40.927Z,16.73
